Time;durP1;ratioP1;P1;durP2;ratioP2;P2;SDS_P1;SDS_P2;PMS_P1;PMS_P2;Temp;Humidity;BMP_temperature;BMP_pressure;BME280_temperature;BME280_humidity;BME280_pressure;Samples;Min_cycle;Max_cycle;Signal;HPM_P1;HPM_P2
2023/01/01 00:02:20;;;;;;;11.02;7.50;;;;;20.00;100516.00;;;;5052000;28;20211;-77
2023/01/01 00:04:48;;;;;;;13.13;8.98;;;;;20.00;100523.00;;;;5052534;28;20231;-76
2023/01/01 00:07:15;;;;;;;23.73;8.57;;;;;20.00;100526.00;;;;5052321;28;20191;-76
2023/01/01 00:12:27;;;;;;;13.77;9.13;;;;;20.00;100516.00;;;;5052792;28;20703;-77
2023/01/01 00:14:57;;;;;;;18.75;11.38;;;;;20.00;100513.00;;;;5064071;28;20232;-77
2023/01/01 00:17:24;;;;;;;19.83;12.15;;;;;20.00;100518.00;;;;5071229;28;20688;-76
2023/01/01 00:19:51;;;;;;;13.85;11.60;;;;;20.00;100512.00;;;;5051766;28;20586;-77
2023/01/01 00:22:18;;;;;;;18.00;11.82;;;;;20.00;100525.00;;;;5051125;28;20207;-77
2023/01/01 00:24:46;;;;;;;17.48;11.48;;;;;20.00;100516.00;;;;5050486;28;20227;-77
2023/01/01 00:27:13;;;;;;;23.02;12.23;;;;;20.00;100527.00;;;;5051332;28;20215;-76
2023/01/01 00:29:40;;;;;;;18.17;12.32;;;;;20.00;100515.00;;;;5058695;28;20199;-77
2023/01/01 00:32:11;;;;;;;18.30;11.05;;;;;20.00;100509.00;;;;5051452;28;20204;-77
2023/01/01 00:34:38;;;;;;;14.40;9.77;;;;;20.00;100517.00;;;;5051548;28;20204;-76
2023/01/01 00:37:05;;;;;;;14.88;9.82;;;;;20.00;100515.00;;;;5051332;28;20665;-76
2023/01/01 00:39:32;;;;;;;17.83;10.07;;;;;20.00;100523.00;;;;5051402;28;20199;-76
2023/01/01 00:42:00;;;;;;;17.10;8.75;;;;;20.00;100549.00;;;;5050932;28;20206;-77
2023/01/01 00:44:27;;;;;;;15.32;8.10;;;;;20.00;100530.00;;;;5049923;28;21029;-77
2023/01/01 00:46:54;;;;;;;13.18;7.32;;;;;20.00;100529.00;;;;5063557;28;20198;-77
2023/01/01 00:49:23;;;;;;;9.77;6.68;;;;;20.00;100525.00;;;;5070184;28;20207;-77
2023/01/01 00:51:50;;;;;;;10.45;6.15;;;;;20.00;100525.00;;;;5066756;28;20707;-77
2023/01/01 00:54:17;;;;;;;10.20;5.25;;;;;20.00;100528.00;;;;5056956;28;20191;-77
2023/01/01 00:56:44;;;;;;;8.68;5.40;;;;;20.00;100523.00;;;;5069010;28;20203;-77
2023/01/01 00:59:11;;;;;;;10.23;4.78;;;;;20.00;100530.00;;;;5051657;28;20709;-76
2023/01/01 01:01:39;;;;;;;8.15;4.60;;;;;20.00;100524.00;;;;5051198;28;20672;-76
2023/01/01 01:04:08;;;;;;;7.53;3.95;;;;;20.00;100524.00;;;;5055194;28;20250;-76
2023/01/01 01:06:36;;;;;;;10.15;4.25;;;;;20.00;100533.00;;;;5070900;28;20482;-77
2023/01/01 01:09:05;;;;;;;8.52;3.25;;;;;20.00;100540.00;;;;5066493;28;20200;-76
2023/01/01 01:11:33;;;;;;;8.40;3.92;;;;;20.00;100543.00;;;;5051296;28;20662;-77
2023/01/01 01:14:00;;;;;;;9.98;4.18;;;;;20.10;100543.00;;;;5050775;28;20207;-76
2023/01/01 01:16:29;;;;;;;6.55;3.65;;;;;20.00;100542.00;;;;5049868;28;20191;-76
2023/01/01 01:18:59;;;;;;;8.05;3.38;;;;;20.00;100529.00;;;;5049571;28;20207;-77
2023/01/01 01:21:27;;;;;;;11.25;3.65;;;;;20.00;100552.00;;;;5050473;28;20697;-77
2023/01/01 01:23:58;;;;;;;8.68;4.68;;;;;20.00;100546.00;;;;5050111;28;20227;-76
2023/01/01 01:26:28;;;;;;;6.00;3.85;;;;;20.00;100552.00;;;;5050060;28;20724;-77
2023/01/01 01:28:55;;;;;;;5.78;3.35;;;;;20.00;100565.00;;;;5055709;28;20199;-76
2023/01/01 01:31:24;;;;;;;6.40;2.97;;;;;20.00;100567.00;;;;5069684;28;20210;-77
2023/01/01 01:33:51;;;;;;;5.38;3.15;;;;;20.00;100566.00;;;;5070515;28;20203;-76
2023/01/01 01:36:19;;;;;;;10.63;3.22;;;;;20.00;100573.00;;;;5070512;28;20206;-77
2023/01/01 01:38:47;;;;;;;4.70;2.38;;;;;20.00;100579.00;;;;5069304;28;20210;-76
2023/01/01 01:41:17;;;;;;;6.53;2.83;;;;;19.90;100571.00;;;;5069598;28;20202;-77
2023/01/01 01:43:54;;;;;;;5.30;3.22;;;;;19.80;100561.00;;;;5067746;28;20230;-76
2023/01/01 01:46:26;;;;;;;7.80;2.90;;;;;19.90;100574.00;;;;5070145;28;20214;-78
2023/01/01 01:48:56;;;;;;;7.82;3.30;;;;;19.80;100576.00;;;;5061666;28;20206;-76
2023/01/01 01:51:32;;;;;;;5.20;2.70;;;;;19.80;100589.00;;;;5048771;28;20195;-77
2023/01/01 01:54:03;;;;;;;10.40;3.80;;;;;19.80;100583.00;;;;5049149;28;20199;-77
2023/01/01 01:56:38;;;;;;;5.32;2.95;;;;;19.70;100593.00;;;;5049551;28;20203;-77
2023/01/01 01:59:06;;;;;;;6.28;2.22;;;;;19.70;100592.00;;;;5049093;28;20206;-76
2023/01/01 02:01:33;;;;;;;6.97;2.28;;;;;19.70;100589.00;;;;5066433;28;20202;-76
2023/01/01 02:04:02;;;;;;;4.05;2.10;;;;;19.70;100590.00;;;;5069264;28;20233;-76
2023/01/01 02:06:32;;;;;;;7.53;1.83;;;;;19.70;100595.00;;;;5068274;28;20206;-76
2023/01/01 02:09:02;;;;;;;3.17;2.08;;;;;19.70;100598.00;;;;5068710;28;20191;-77
2023/01/01 02:11:31;;;;;;;7.45;2.30;;;;;19.70;100609.00;;;;5064928;28;20199;-76
2023/01/01 02:14:00;;;;;;;6.68;1.83;;;;;19.60;100619.00;;;;5065958;28;20199;-77
2023/01/01 02:16:33;;;;;;;4.63;2.20;;;;;19.60;100612.00;;;;5068533;28;20210;-77
2023/01/01 02:19:07;;;;;;;5.20;1.98;;;;;19.60;100609.00;;;;5048619;28;20188;-77
2023/01/01 02:21:39;;;;;;;4.72;1.88;;;;;19.60;100621.00;;;;5057655;28;20205;-77
2023/01/01 02:24:25;;;;;;;3.92;2.00;;;;;19.50;100615.00;;;;5068519;28;20257;-77
2023/01/01 02:26:58;;;;;;;9.82;1.55;;;;;19.50;100608.00;;;;5066461;28;20591;-76
2023/01/01 02:29:36;;;;;;;5.38;1.92;;;;;19.50;100622.00;;;;5050506;28;20195;-77
2023/01/01 02:32:07;;;;;;;3.55;1.73;;;;;19.50;100632.00;;;;5061778;28;20690;-76
2023/01/01 02:34:38;;;;;;;5.20;1.75;;;;;19.50;100629.00;;;;5058735;28;20211;-76
2023/01/01 02:37:08;;;;;;;2.25;1.67;;;;;19.50;100626.00;;;;5048458;28;20199;-76
2023/01/01 02:39:39;;;;;;;3.03;1.73;;;;;19.50;100620.00;;;;5047480;28;20218;-76
2023/01/01 02:42:08;;;;;;;4.82;1.38;;;;;19.50;100622.00;;;;5061715;28;20695;-77
2023/01/01 02:44:40;;;;;;;4.72;2.10;;;;;19.40;100631.00;;;;5067650;28;20507;-76
2023/01/01 02:47:10;;;;;;;3.50;1.73;;;;;19.50;100630.00;;;;5066124;28;20199;-77
2023/01/01 02:49:40;;;;;;;4.80;1.40;;;;;19.50;100632.00;;;;5068176;28;20218;-76
2023/01/01 02:52:12;;;;;;;4.07;1.50;;;;;19.40;100620.00;;;;5066284;28;20652;-76
2023/01/01 02:54:50;;;;;;;4.93;1.50;;;;;19.40;100613.00;;;;5065274;28;20202;-76
2023/01/01 02:57:31;;;;;;;3.25;1.50;;;;;19.40;100616.00;;;;5067777;28;20209;-76
2023/01/01 03:00:18;;;;;;;4.65;1.38;;;;;19.40;100621.00;;;;5066058;28;20191;-76
2023/01/01 03:03:08;;;;;;;5.22;1.30;;;;;19.40;100623.00;;;;5068039;28;20766;-77
2023/01/01 03:08:29;;;;;;;3.40;1.33;;;;;19.40;100631.00;;;;5059575;28;20204;-75
2023/01/01 03:11:03;;;;;;;3.28;1.42;;;;;19.40;100649.00;;;;5047766;28;20557;-77
2023/01/01 03:13:39;;;;;;;5.38;1.20;;;;;19.40;100646.00;;;;5067062;28;20580;-76
2023/01/01 03:16:14;;;;;;;6.70;1.60;;;;;19.40;100641.00;;;;5067220;28;20203;-76
2023/01/01 03:18:48;;;;;;;4.47;1.25;;;;;19.40;100653.00;;;;5068515;28;20209;-76
2023/01/01 03:21:21;;;;;;;2.58;1.30;;;;;19.40;100649.00;;;;5059904;28;20192;-76
2023/01/01 03:23:54;;;;;;;2.25;1.08;;;;;19.40;100637.00;;;;5047875;28;20196;-76
2023/01/01 03:26:26;;;;;;;4.07;1.85;;;;;19.40;100656.00;;;;5062282;28;20231;-77
2023/01/01 03:28:57;;;;;;;4.60;1.17;;;;;19.40;100661.00;;;;5068167;28;20283;-76
2023/01/01 03:31:26;;;;;;;2.55;1.25;;;;;19.40;100649.00;;;;5061027;28;20199;-77
2023/01/01 03:34:00;;;;;;;4.45;1.20;;;;;19.40;100651.00;;;;5048273;28;20747;-77
2023/01/01 03:36:34;;;;;;;6.50;1.10;;;;;19.40;100658.00;;;;5047887;28;20211;-76
2023/01/01 03:39:06;;;;;;;3.83;1.30;;;;;19.40;100658.00;;;;5048502;28;20203;-76
2023/01/01 03:41:37;;;;;;;2.42;1.02;;;;;19.50;100659.00;;;;5048205;28;20223;-76
2023/01/01 03:44:11;;;;;;;4.50;0.98;;;;;19.50;100671.00;;;;5067882;28;20233;-77
2023/01/01 03:46:40;;;;;;;2.47;1.05;;;;;19.50;100670.00;;;;5056380;28;20199;-76
2023/01/01 03:49:11;;;;;;;5.80;1.52;;;;;19.50;100666.00;;;;5047609;28;20215;-76
2023/01/01 03:51:56;;;;;;;3.90;1.15;;;;;19.40;100659.00;;;;5047512;28;20196;-76
2023/01/01 03:54:36;;;;;;;3.28;1.50;;;;;19.50;100675.00;;;;5062487;28;20206;-76
2023/01/01 03:57:10;;;;;;;5.60;1.30;;;;;19.50;100676.00;;;;5068400;28;20631;-76
2023/01/01 03:59:42;;;;;;;2.65;1.00;;;;;19.60;100685.00;;;;5058108;28;20200;-77
2023/01/01 04:02:13;;;;;;;3.30;0.93;;;;;19.60;100683.00;;;;5048314;28;21074;-76
2023/01/01 04:04:41;;;;;;;3.42;1.17;;;;;19.60;100704.00;;;;5048068;28;20230;-76
2023/01/01 04:07:08;;;;;;;4.30;1.48;;;;;19.70;100756.00;;;;5064238;28;20587;-77
2023/01/01 04:09:38;;;;;;;6.10;1.70;;;;;19.60;100740.00;;;;5070962;28;20198;-77
2023/01/01 04:12:06;;;;;;;3.58;1.13;;;;;19.60;100756.00;;;;5064548;28;20199;-76
2023/01/01 04:14:36;;;;;;;3.95;1.67;;;;;19.50;100780.00;;;;5053522;28;22175;-77
2023/01/01 04:17:05;;;;;;;6.13;1.65;;;;;19.40;100789.00;;;;5057982;28;20211;-76
2023/01/01 04:19:34;;;;;;;5.05;1.42;;;;;19.30;100770.00;;;;5070289;28;20202;-76
2023/01/01 04:22:01;;;;;;;3.38;1.15;;;;;19.30;100777.00;;;;5055456;28;20211;-76
2023/01/01 04:24:29;;;;;;;4.25;1.42;;;;;19.20;100775.00;;;;5050533;28;20196;-76
2023/01/01 04:26:57;;;;;;;5.72;1.60;;;;;19.10;100785.00;;;;5051024;28;20769;-76
2023/01/01 04:29:25;;;;;;;3.47;1.23;;;;;19.00;100790.00;;;;5065339;28;20206;-76
2023/01/01 04:31:52;;;;;;;7.13;1.10;;;;;19.00;100777.00;;;;5071591;28;20540;-77
2023/01/01 04:34:19;;;;;;;3.08;0.90;;;;;18.90;100753.00;;;;5056535;28;20237;-77
2023/01/01 04:36:48;;;;;;;5.80;1.50;;;;;18.90;100758.00;;;;5051528;28;20207;-76
2023/01/01 04:39:15;;;;;;;7.25;1.20;;;;;18.80;100760.00;;;;5052380;28;20207;-77
2023/01/01 04:41:42;;;;;;;4.47;1.30;;;;;18.80;100749.00;;;;5051590;28;20192;-76
2023/01/01 04:44:09;;;;;;;5.88;1.30;;;;;18.70;100759.00;;;;5065246;28;20546;-76
2023/01/01 04:46:36;;;;;;;6.07;1.60;;;;;18.70;100762.00;;;;5067423;28;20226;-76
2023/01/01 04:49:04;;;;;;;3.05;1.20;;;;;18.60;100768.00;;;;5051171;28;20202;-77
2023/01/01 04:51:31;;;;;;;3.65;1.10;;;;;18.60;100765.00;;;;5051299;28;20207;-76
2023/01/01 04:54:01;;;;;;;4.03;1.33;;;;;18.50;100769.00;;;;5050850;28;20206;-76
2023/01/01 04:56:28;;;;;;;3.08;0.88;;;;;18.50;100765.00;;;;5051060;28;20670;-76
2023/01/01 04:58:57;;;;;;;4.60;1.27;;;;;18.50;100768.00;;;;5051119;28;20200;-76
2023/01/01 05:01:26;;;;;;;2.55;0.95;;;;;18.40;100777.00;;;;5050777;28;20191;-76
2023/01/01 05:03:53;;;;;;;6.40;1.08;;;;;18.40;100770.00;;;;5051633;28;20199;-76
2023/01/01 05:06:21;;;;;;;4.50;1.30;;;;;18.40;100769.00;;;;5050403;28;20223;-77
2023/01/01 05:08:53;;;;;;;3.50;1.20;;;;;18.40;100769.00;;;;5054137;28;20215;-76
2023/01/01 05:11:23;;;;;;;2.75;0.88;;;;;18.40;100770.00;;;;5050795;28;20265;-77
2023/01/01 05:13:53;;;;;;;2.28;1.33;;;;;18.40;100781.00;;;;5049782;28;20196;-76
2023/01/01 05:16:23;;;;;;;7.20;1.55;;;;;18.40;100780.00;;;;5050797;28;20211;-76
2023/01/01 05:18:51;;;;;;;4.05;1.35;;;;;18.40;100784.00;;;;5061294;28;20203;-76
2023/01/01 05:21:20;;;;;;;5.00;1.45;;;;;18.40;100799.00;;;;5069854;28;20194;-78
2023/01/01 05:23:47;;;;;;;3.90;1.23;;;;;18.40;100811.00;;;;5067389;28;20207;-76
2023/01/01 05:26:16;;;;;;;4.47;1.17;;;;;18.40;100797.00;;;;5050540;28;20227;-77
2023/01/01 05:28:46;;;;;;;3.70;1.40;;;;;18.40;100804.00;;;;5049880;28;20203;-76
2023/01/01 05:31:14;;;;;;;4.75;1.00;;;;;18.40;100804.00;;;;5050723;28;20270;-76
2023/01/01 05:33:42;;;;;;;1.90;0.90;;;;;18.40;100815.00;;;;5057886;28;20564;-76
2023/01/01 05:36:15;;;;;;;2.75;0.90;;;;;18.40;100815.00;;;;5063004;28;20221;-77
2023/01/01 05:38:43;;;;;;;2.72;0.90;;;;;18.40;100823.00;;;;5069985;28;20198;-76
2023/01/01 05:41:12;;;;;;;3.55;1.35;;;;;18.40;100833.00;;;;5064061;28;20208;-77
2023/01/01 05:43:39;;;;;;;3.22;1.30;;;;;18.40;100843.00;;;;5060264;28;20223;-77
2023/01/01 05:46:10;;;;;;;1.73;0.68;;;;;18.40;100839.00;;;;5069243;28;20727;-76
2023/01/01 05:48:38;;;;;;;3.05;0.55;;;;;18.40;100836.00;;;;5066342;28;20195;-77
2023/01/01 05:51:07;;;;;;;3.58;0.80;;;;;18.40;100846.00;;;;5067799;28;20200;-77
2023/01/01 05:53:34;;;;;;;2.78;1.00;;;;;18.40;100852.00;;;;5068459;28;20207;-77
2023/01/01 05:56:03;;;;;;;2.97;0.47;;;;;18.40;100855.00;;;;5069714;28;20191;-77
2023/01/01 05:58:31;;;;;;;3.13;0.50;;;;;18.40;100866.00;;;;5059957;28;20618;-77
2023/01/01 06:01:08;;;;;;;1.80;0.68;;;;;18.30;100872.00;;;;5048487;28;20196;-77
2023/01/01 06:03:35;;;;;;;3.00;1.02;;;;;18.30;100873.00;;;;5048396;28;20338;-76
2023/01/01 06:06:07;;;;;;;2.38;0.60;;;;;18.30;100866.00;;;;5062292;28;20226;-76
2023/01/01 06:08:35;;;;;;;2.03;0.55;;;;;18.30;100871.00;;;;5068272;28;20210;-77
2023/01/01 06:11:03;;;;;;;1.48;0.65;;;;;18.30;100890.00;;;;5067604;28;20203;-77
2023/01/01 06:13:31;;;;;;;3.13;0.57;;;;;18.20;100888.00;;;;5050735;28;20208;-76
2023/01/01 06:16:00;;;;;;;2.75;0.77;;;;;18.20;100907.00;;;;5048622;28;20215;-76
2023/01/01 06:18:30;;;;;;;1.50;0.45;;;;;18.20;100895.00;;;;5049779;28;20204;-77
2023/01/01 06:21:05;;;;;;;1.63;0.40;;;;;18.10;100908.00;;;;5049203;28;20203;-76
2023/01/01 06:23:32;;;;;;;1.95;0.68;;;;;18.20;100904.00;;;;5048691;28;20686;-77
2023/01/01 06:26:05;;;;;;;3.70;0.95;;;;;18.10;100911.00;;;;5048127;28;20719;-76
2023/01/01 06:28:32;;;;;;;2.38;0.65;;;;;18.20;100926.00;;;;5049844;28;20215;-76
2023/01/01 06:31:00;;;;;;;2.70;0.60;;;;;18.20;100923.00;;;;5048395;28;20523;-77
2023/01/01 06:33:29;;;;;;;2.63;0.43;;;;;18.10;100924.00;;;;5065275;28;20241;-77
2023/01/01 06:35:57;;;;;;;1.40;0.47;;;;;18.10;100930.00;;;;5059647;28;20613;-76
2023/01/01 06:38:24;;;;;;;2.60;0.35;;;;;18.10;100941.00;;;;5048293;28;20200;-76
2023/01/01 06:40:59;;;;;;;2.13;0.57;;;;;18.00;100926.00;;;;5047899;28;20203;-77
2023/01/01 06:43:29;;;;;;;4.30;0.30;;;;;18.00;100935.00;;;;5058749;28;20192;-77
2023/01/01 06:46:03;;;;;;;1.98;0.55;;;;;18.00;100930.00;;;;5048961;28;20228;-76
2023/01/01 06:48:34;;;;;;;1.33;0.40;;;;;18.00;100947.00;;;;5048668;28;20229;-77
2023/01/01 06:51:07;;;;;;;2.63;0.50;;;;;17.90;100943.00;;;;5049262;28;20211;-77
2023/01/01 06:53:34;;;;;;;1.63;0.60;;;;;18.00;100950.00;;;;5049291;28;20191;-76
2023/01/01 06:56:01;;;;;;;0.85;0.40;;;;;18.00;100959.00;;;;5048867;28;20215;-77
2023/01/01 06:58:29;;;;;;;2.10;0.30;;;;;18.00;100957.00;;;;5048828;28;20203;-76
2023/01/01 07:01:04;;;;;;;2.35;0.80;;;;;17.90;100953.00;;;;5048586;28;20206;-76
2023/01/01 07:03:33;;;;;;;0.60;0.28;;;;;17.90;100957.00;;;;5048214;28;20203;-77
2023/01/01 07:06:00;;;;;;;5.03;0.55;;;;;17.90;100985.00;;;;5049119;28;20701;-76
2023/01/01 07:08:27;;;;;;;0.52;0.20;;;;;17.90;100976.00;;;;5047702;28;20211;-78
2023/01/01 07:10:56;;;;;;;2.10;0.20;;;;;17.90;100969.00;;;;5064032;28;20556;-76
2023/01/01 07:13:24;;;;;;;1.40;0.32;;;;;17.90;100977.00;;;;5054359;28;20206;-77
2023/01/01 07:15:51;;;;;;;2.42;0.55;;;;;17.90;100958.00;;;;5049230;28;20231;-76
2023/01/01 07:18:18;;;;;;;4.13;0.52;;;;;17.80;100980.00;;;;5049473;28;20195;-77
2023/01/01 07:20:53;;;;;;;3.72;0.45;;;;;17.80;100994.00;;;;5048693;28;20212;-76
2023/01/01 07:23:20;;;;;;;1.55;0.30;;;;;17.80;101008.00;;;;5049124;28;20210;-77
2023/01/01 07:25:49;;;;;;;2.42;0.60;;;;;17.70;101017.00;;;;5054669;28;20252;-77
2023/01/01 07:28:17;;;;;;;1.40;0.20;;;;;17.70;101022.00;;;;5067692;28;20207;-76
2023/01/01 07:30:44;;;;;;;2.35;0.20;;;;;17.70;101027.00;;;;5068628;28;20195;-77
2023/01/01 07:33:12;;;;;;;1.75;0.32;;;;;17.70;101034.00;;;;5067986;28;20195;-77
2023/01/01 07:35:40;;;;;;;2.63;0.32;;;;;17.60;101026.00;;;;5057039;28;20593;-77
2023/01/01 07:38:09;;;;;;;1.48;0.25;;;;;17.60;101029.00;;;;5068565;28;20207;-76
2023/01/01 07:40:36;;;;;;;2.80;0.50;;;;;17.50;101037.00;;;;5058473;28;20211;-76
2023/01/01 07:43:03;;;;;;;3.25;0.50;;;;;17.50;101052.00;;;;5053189;28;20187;-77
2023/01/01 07:45:31;;;;;;;3.05;0.47;;;;;17.50;101071.00;;;;5070068;28;20225;-76
2023/01/01 07:47:59;;;;;;;2.28;0.63;;;;;17.50;101072.00;;;;5073431;28;20199;-76
2023/01/01 07:50:28;;;;;;;1.40;0.40;;;;;17.50;101086.00;;;;5054973;28;20196;-76
2023/01/01 07:52:56;;;;;;;2.70;0.40;;;;;17.50;101094.00;;;;5052380;28;20203;-76
2023/01/01 07:55:24;;;;;;;2.47;0.60;;;;;17.40;101072.00;;;;5052382;28;20206;-76
2023/01/01 07:57:52;;;;;;;2.20;0.50;;;;;17.40;101099.00;;;;5052956;28;20208;-77
2023/01/01 08:00:21;;;;;;;4.43;0.70;;;;;17.40;101105.00;;;;5051669;28;20222;-76
2023/01/01 08:02:49;;;;;;;1.70;0.73;;;;;17.40;101106.00;;;;5052828;28;20203;-76
2023/01/01 08:05:16;;;;;;;1.20;0.30;;;;;17.30;101113.00;;;;5051293;28;20203;-76
2023/01/01 08:07:46;;;;;;;1.58;0.35;;;;;17.30;101118.00;;;;5071505;28;20222;-76
2023/01/01 08:10:14;;;;;;;2.13;0.60;;;;;17.30;101110.00;;;;5071747;28;20210;-77
2023/01/01 08:12:43;;;;;;;6.45;0.47;;;;;17.30;101135.00;;;;5053836;28;20203;-76
2023/01/01 08:15:11;;;;;;;2.13;0.50;;;;;17.30;101135.00;;;;5066337;28;20214;-77
2023/01/01 08:17:39;;;;;;;3.00;0.57;;;;;17.20;101142.00;;;;5071025;28;20202;-76
2023/01/01 08:20:08;;;;;;;2.67;0.40;;;;;17.20;101140.00;;;;5069834;28;20665;-76
2023/01/01 08:22:35;;;;;;;2.63;0.40;;;;;17.20;101141.00;;;;5052314;28;20624;-77
2023/01/01 08:25:02;;;;;;;0.95;0.32;;;;;17.20;101163.00;;;;5052221;28;20203;-76
2023/01/01 08:27:29;;;;;;;2.42;0.60;;;;;17.10;101147.00;;;;5051275;28;20562;-76
2023/01/01 08:29:58;;;;;;;2.10;0.80;;;;;17.10;101154.00;;;;5051108;28;20675;-76
2023/01/01 08:32:25;;;;;;;2.75;0.60;;;;;17.10;101148.00;;;;5051789;28;20211;-76
2023/01/01 08:34:52;;;;;;;3.08;0.50;;;;;17.10;101151.00;;;;5050917;28;20207;-76
2023/01/01 08:37:21;;;;;;;1.85;0.30;;;;;17.10;101163.00;;;;5050498;28;20226;-76
2023/01/01 08:39:50;;;;;;;4.70;0.60;;;;;17.10;101155.00;;;;5051537;28;20685;-77
2023/01/01 08:42:17;;;;;;;4.35;0.43;;;;;17.10;101155.00;;;;5055410;28;20195;-76
2023/01/01 08:44:44;;;;;;;3.60;0.93;;;;;17.10;101147.00;;;;5068041;28;20236;-76
2023/01/01 08:47:19;;;;;;;3.00;0.63;;;;;17.00;101153.00;;;;5071023;28;20736;-76
2023/01/01 08:49:46;;;;;;;3.15;0.65;;;;;17.10;101159.00;;;;5069692;28;20214;-76
2023/01/01 08:52:13;;;;;;;2.67;0.52;;;;;17.10;101161.00;;;;5070433;28;20199;-76
2023/01/01 08:54:41;;;;;;;1.67;0.43;;;;;17.10;101150.00;;;;5070615;28;20202;-76
2023/01/01 08:57:08;;;;;;;3.38;0.82;;;;;17.10;101161.00;;;;5051108;28;20199;-76
2023/01/01 08:59:36;;;;;;;2.22;0.50;;;;;17.20;101170.00;;;;5050877;28;20206;-76
2023/01/01 09:02:03;;;;;;;5.68;0.52;;;;;17.10;101184.00;;;;5051241;28;20202;-76
2023/01/01 09:04:32;;;;;;;1.63;0.47;;;;;17.20;101179.00;;;;5063515;28;20210;-76
2023/01/01 09:06:59;;;;;;;1.92;0.30;;;;;17.20;101182.00;;;;5050067;28;20693;-76
2023/01/01 09:09:26;;;;;;;2.70;0.47;;;;;17.20;101178.00;;;;5050649;28;20224;-76
2023/01/01 09:11:57;;;;;;;1.83;0.25;;;;;17.20;101176.00;;;;5050423;28;20200;-76
2023/01/01 09:14:25;;;;;;;2.88;0.45;;;;;17.20;101185.00;;;;5050286;28;20286;-77
2023/01/01 09:16:52;;;;;;;2.38;0.32;;;;;17.20;101191.00;;;;5050576;28;20203;-76
2023/01/01 09:19:19;;;;;;;1.70;0.32;;;;;17.20;101188.00;;;;5050641;28;20196;-76
2023/01/01 09:21:48;;;;;;;1.90;0.38;;;;;17.20;101185.00;;;;5065692;28;20689;-76
2023/01/01 09:24:15;;;;;;;2.35;0.40;;;;;17.20;101194.00;;;;5050640;28;20223;-76
2023/01/01 09:26:42;;;;;;;4.15;0.63;;;;;17.20;101197.00;;;;5051197;28;20586;-76
2023/01/01 09:29:10;;;;;;;3.72;0.65;;;;;17.20;101182.00;;;;5070585;28;20662;-76
2023/01/01 09:31:37;;;;;;;3.13;0.40;;;;;17.20;101200.00;;;;5069858;28;20220;-76
2023/01/01 09:34:04;;;;;;;4.47;0.80;;;;;17.20;101198.00;;;;5069927;28;20210;-76
2023/01/01 09:36:33;;;;;;;2.13;0.40;;;;;17.30;101198.00;;;;5062574;28;20206;-76
2023/01/01 09:39:02;;;;;;;2.20;0.63;;;;;17.30;101199.00;;;;5066130;28;20203;-76
2023/01/01 09:41:43;;;;;;;2.90;0.43;;;;;17.30;101196.00;;;;5050192;28;20281;-76
2023/01/01 09:44:19;;;;;;;4.65;0.75;;;;;17.40;101193.00;;;;5049873;28;20227;-76
2023/01/01 09:46:46;;;;;;;3.28;0.52;;;;;17.40;101196.00;;;;5049047;28;20226;-76
2023/01/01 09:49:18;;;;;;;5.30;0.80;;;;;17.40;101206.00;;;;5049561;28;20289;-76
2023/01/01 09:51:50;;;;;;;1.52;0.47;;;;;17.50;101200.00;;;;5050801;28;20212;-76
2023/01/01 09:54:27;;;;;;;1.83;0.35;;;;;17.50;101206.00;;;;5058265;28;20209;-76
2023/01/01 09:56:57;;;;;;;1.73;0.50;;;;;17.60;101224.00;;;;5057011;28;20203;-76
2023/01/01 09:59:24;;;;;;;3.17;0.68;;;;;17.70;101226.00;;;;5049738;28;20204;-76
2023/01/01 10:01:57;;;;;;;1.85;0.52;;;;;17.70;101218.00;;;;5050365;28;20207;-76
2023/01/01 10:04:36;;;;;;;1.75;0.43;;;;;17.80;101230.00;;;;5049414;28;20187;-76
2023/01/01 10:07:10;;;;;;;5.95;0.73;;;;;17.80;101232.00;;;;5049831;28;20215;-76
2023/01/01 10:09:46;;;;;;;5.88;0.93;;;;;17.80;101238.00;;;;5049667;28;20207;-76
2023/01/01 10:12:23;;;;;;;3.63;1.10;;;;;17.90;101223.00;;;;5049634;28;20195;-75
2023/01/01 10:14:54;;;;;;;3.70;0.50;;;;;18.00;101233.00;;;;5048752;28;20763;-76
2023/01/01 10:17:30;;;;;;;2.95;0.68;;;;;18.00;101240.00;;;;5049392;28;20214;-75
2023/01/01 10:20:02;;;;;;;1.88;0.45;;;;;18.10;101236.00;;;;5048721;28;20203;-76
2023/01/01 10:22:34;;;;;;;1.92;0.60;;;;;18.10;101230.00;;;;5049200;28;20684;-76
2023/01/01 10:25:08;;;;;;;4.57;1.33;;;;;18.10;101235.00;;;;5049333;28;20202;-76
2023/01/01 10:27:39;;;;;;;2.83;0.77;;;;;18.20;101238.00;;;;5048910;28;20238;-76
2023/01/01 10:30:15;;;;;;;4.13;0.82;;;;;18.20;101233.00;;;;5048459;28;20226;-76
2023/01/01 10:32:43;;;;;;;3.28;1.45;;;;;18.30;101223.00;;;;5049042;28;20680;-76
2023/01/01 10:35:14;;;;;;;6.22;0.80;;;;;18.30;101213.00;;;;5049727;28;20298;-76
2023/01/01 10:37:42;;;;;;;3.20;0.57;;;;;18.40;101196.00;;;;5049053;28;20235;-77
2023/01/01 10:40:19;;;;;;;1.75;0.40;;;;;18.40;101207.00;;;;5049458;28;20204;-77
2023/01/01 10:42:49;;;;;;;7.65;0.88;;;;;18.40;101195.00;;;;5047922;28;20674;-77
2023/01/01 10:45:17;;;;;;;5.05;0.77;;;;;18.50;101210.00;;;;5048511;28;20661;-76
2023/01/01 10:48:13;;;;;;;2.47;0.55;;;;;18.40;101197.00;;;;5049865;28;20693;-77
2023/01/01 10:50:47;;;;;;;1.95;0.70;;;;;18.50;101199.00;;;;5048771;28;20202;-76
2023/01/01 10:53:37;;;;;;;4.68;0.50;;;;;18.40;101225.00;;;;5048631;28;20203;-76
2023/01/01 10:56:09;;;;;;;4.78;0.93;;;;;18.50;101240.00;;;;5051916;28;20195;-76
2023/01/01 10:58:43;;;;;;;2.28;0.65;;;;;18.50;101228.00;;;;5069027;28;20236;-76
2023/01/01 11:01:12;;;;;;;1.20;0.47;;;;;18.60;101218.00;;;;5068989;28;20199;-76
2023/01/01 11:03:54;;;;;;;1.15;0.38;;;;;18.50;101237.00;;;;5058188;28;20195;-76
2023/01/01 11:06:23;;;;;;;5.10;1.30;;;;;18.60;101258.00;;;;5068362;28;20203;-76
2023/01/01 11:08:53;;;;;;;3.90;0.63;;;;;18.60;101261.00;;;;5069131;28;20226;-76
2023/01/01 11:11:27;;;;;;;3.58;1.00;;;;;18.60;101255.00;;;;5054926;28;20188;-76
2023/01/01 11:13:56;;;;;;;2.80;0.63;;;;;18.60;101260.00;;;;5048706;28;20203;-76
2023/01/01 11:16:24;;;;;;;3.15;0.82;;;;;18.60;101266.00;;;;5046611;28;20195;-76
2023/01/01 11:18:51;;;;;;;3.10;1.02;;;;;18.60;101254.00;;;;5060669;28;20209;-76
2023/01/01 11:21:24;;;;;;;5.38;0.77;;;;;18.60;101262.00;;;;5060171;28;20536;-76
2023/01/01 11:24:09;;;;;;;3.67;1.33;;;;;18.60;101259.00;;;;5047567;28;20200;-75
2023/01/01 11:26:38;;;;;;;3.75;1.17;;;;;18.60;101259.00;;;;5046735;28;20226;-76
2023/01/01 11:29:21;;;;;;;3.80;1.20;;;;;18.50;101254.00;;;;5048575;28;20203;-76
2023/01/01 11:31:49;;;;;;;3.47;0.90;;;;;18.60;101257.00;;;;5065794;28;20203;-77
2023/01/01 11:34:28;;;;;;;3.08;1.08;;;;;18.50;101248.00;;;;5064686;28;20202;-77
2023/01/01 11:37:08;;;;;;;4.90;1.13;;;;;18.50;101244.00;;;;5051660;28;20629;-76
2023/01/01 11:39:36;;;;;;;2.38;0.80;;;;;18.50;101239.00;;;;5065426;28;20501;-76
2023/01/01 11:42:07;;;;;;;2.70;1.15;;;;;18.50;101238.00;;;;5056451;28;20568;-76
2023/01/01 11:44:40;;;;;;;4.47;0.98;;;;;18.50;101239.00;;;;5046835;28;20223;-76
2023/01/01 11:47:18;;;;;;;3.17;0.70;;;;;18.50;101237.00;;;;5048027;28;20231;-76
2023/01/01 11:49:47;;;;;;;5.30;1.50;;;;;18.50;101239.00;;;;5067887;28;20337;-76
2023/01/01 11:52:33;;;;;;;4.38;1.35;;;;;18.40;101238.00;;;;5067323;28;20657;-76
2023/01/01 11:55:09;;;;;;;1.60;0.82;;;;;18.50;101241.00;;;;5062519;28;20207;-76
2023/01/01 11:57:40;;;;;;;3.47;1.10;;;;;18.50;101238.00;;;;5046982;28;20214;-76
2023/01/01 12:00:14;;;;;;;4.70;1.00;;;;;18.50;101234.00;;;;5057760;28;20203;-76
2023/01/01 12:02:49;;;;;;;3.30;1.15;;;;;18.50;101245.00;;;;5054665;28;20210;-76
2023/01/01 12:05:20;;;;;;;3.28;0.90;;;;;18.50;101248.00;;;;5067650;28;20676;-76
2023/01/01 12:07:48;;;;;;;4.25;1.38;;;;;18.50;101247.00;;;;5067478;28;20226;-76
2023/01/01 12:10:21;;;;;;;1.63;0.82;;;;;18.50;101246.00;;;;5066657;28;20208;-77
2023/01/01 12:12:56;;;;;;;4.18;1.20;;;;;18.60;101255.00;;;;5047145;28;20208;-76
2023/01/01 12:15:30;;;;;;;7.68;1.55;;;;;18.60;101254.00;;;;5046382;28;20199;-76
2023/01/01 12:18:06;;;;;;;5.82;1.58;;;;;18.60;101251.00;;;;5047639;28;20318;-76
2023/01/01 12:20:38;;;;;;;5.30;1.08;;;;;18.70;101260.00;;;;5046604;28;20204;-76
2023/01/01 12:23:08;;;;;;;3.58;1.10;;;;;18.80;101254.00;;;;5047485;28;20211;-76
2023/01/01 12:25:40;;;;;;;5.93;2.10;;;;;18.80;101245.00;;;;5046680;28;20199;-76
2023/01/01 12:28:28;;;;;;;2.17;0.95;;;;;18.80;101249.00;;;;5048865;28;20231;-75